Time;durP1;ratioP1;P1;durP2;ratioP2;P2;SDS_P1;SDS_P2;PMS_P1;PMS_P2;Temp;Humidity;BMP_temperature;BMP_pressure;BME280_temperature;BME280_humidity;BME280_pressure;Samples;Min_cycle;Max_cycle;Signal;HPM_P1;HPM_P2
2021/08/03 00:01:42;;;;;;;565.88;396.23;;;;;;;;;;4949345;29;20066;-74
2021/08/03 00:04:11;;;;;;;673.50;485.55;;;;;;;;;;4946592;28;20035;-74
2021/08/03 00:06:42;;;;;;;550.85;380.90;;;;;;;;;;4933004;29;20062;-74
2021/08/03 00:09:09;;;;;;;555.25;385.08;;;;;;;;;;4946420;29;20059;-74
2021/08/03 00:11:40;;;;;;;567.42;402.38;;;;;;;;;;4946727;29;20039;-74
2021/08/03 00:14:06;;;;;;;576.88;403.10;;;;;;;;;;4945949;29;20046;-74
2021/08/03 00:16:36;;;;;;;576.25;393.73;;;;;;;;;;4946777;29;20020;-74
2021/08/03 00:19:02;;;;;;;762.17;560.45;;;;;;;;;;4948207;28;20023;-74
2021/08/03 00:21:28;;;;;;;545.97;379.63;;;;;;;;;;4947219;29;20038;-73
2021/08/03 00:23:55;;;;;;;542.53;376.33;;;;;;;;;;4947561;28;20435;-73
2021/08/03 00:26:21;;;;;;;543.55;375.33;;;;;;;;;;4947180;29;20039;-73
2021/08/03 00:28:49;;;;;;;548.28;377.92;;;;;;;;;;4948464;28;20456;-74
2021/08/03 00:31:16;;;;;;;553.00;377.40;;;;;;;;;;4946393;29;20031;-74
2021/08/03 00:33:47;;;;;;;567.72;399.55;;;;;;;;;;4926158;29;20023;-73
2021/08/03 00:36:13;;;;;;;579.25;400.13;;;;;;;;;;4945498;29;20031;-73
2021/08/03 00:38:40;;;;;;;575.63;400.92;;;;;;;;;;4947979;28;20023;-74
2021/08/03 00:41:09;;;;;;;560.45;389.08;;;;;;;;;;4947995;28;20047;-75
2021/08/03 00:43:35;;;;;;;574.28;401.25;;;;;;;;;;4948442;29;20036;-73
2021/08/03 00:46:00;;;;;;;702.78;507.67;;;;;;;;;;4943414;28;20027;-73
2021/08/03 00:48:26;;;;;;;535.55;366.63;;;;;;;;;;4947178;29;20027;-73
2021/08/03 00:50:52;;;;;;;540.72;376.42;;;;;;;;;;4946934;29;20053;-73
2021/08/03 00:53:18;;;;;;;550.85;376.23;;;;;;;;;;4946508;29;20038;-73
2021/08/03 00:55:45;;;;;;;566.42;395.05;;;;;;;;;;4945056;29;20039;-73
2021/08/03 00:58:12;;;;;;;564.08;388.17;;;;;;;;;;4947790;29;20035;-73
2021/08/03 01:00:38;;;;;;;565.88;389.45;;;;;;;;;;4947307;29;20016;-74
2021/08/03 01:03:04;;;;;;;574.90;402.77;;;;;;;;;;4946202;29;20050;-73
2021/08/03 01:05:53;;;;;;;561.58;384.63;;;;;;;;;;4945685;29;20046;-73
2021/08/03 01:08:27;;;;;;;569.90;388.70;;;;;;;;;;4945470;29;20573;-74
2021/08/03 01:10:57;;;;;;;561.30;386.90;;;;;;;;;;4945132;29;20363;-73
2021/08/03 01:13:42;;;;;;;562.42;398.05;;;;;;;;;;4947783;29;20390;-75
2021/08/03 01:16:17;;;;;;;579.40;407.25;;;;;;;;;;4939983;28;20019;-73
2021/08/03 01:18:51;;;;;;;573.13;390.70;;;;;;;;;;4947010;29;20031;-75
2021/08/03 01:21:26;;;;;;;586.03;402.27;;;;;;;;;;4946794;28;20099;-75
2021/08/03 01:24:17;;;;;;;559.70;381.42;;;;;;;;;;4943067;28;20016;-74
2021/08/03 01:27:01;;;;;;;730.13;526.40;;;;;;;;;;4945249;28;20043;-73
2021/08/03 01:29:28;;;;;;;535.30;366.35;;;;;;;;;;4947496;29;20032;-74
2021/08/03 01:31:57;;;;;;;534.10;368.33;;;;;;;;;;4945680;29;20515;-73
2021/08/03 01:34:25;;;;;;;529.75;361.75;;;;;;;;;;4943824;29;20107;-74
2021/08/03 01:36:56;;;;;;;531.00;367.42;;;;;;;;;;4945234;29;20023;-74
2021/08/03 01:39:28;;;;;;;530.35;364.90;;;;;;;;;;4946988;29;20080;-74
2021/08/03 01:41:55;;;;;;;530.85;362.55;;;;;;;;;;4945635;29;20622;-74
2021/08/03 01:44:21;;;;;;;531.28;363.52;;;;;;;;;;4946472;29;20027;-74
2021/08/03 01:46:48;;;;;;;534.92;375.90;;;;;;;;;;4931471;29;20110;-74
2021/08/03 01:49:16;;;;;;;535.40;367.92;;;;;;;;;;4946454;29;20050;-74
2021/08/03 01:51:42;;;;;;;539.63;369.25;;;;;;;;;;4945757;29;20366;-73
2021/08/03 01:54:09;;;;;;;537.63;366.40;;;;;;;;;;4945598;28;20027;-73
2021/08/03 01:56:35;;;;;;;544.40;374.13;;;;;;;;;;4945741;28;20023;-74
2021/08/03 01:59:02;;;;;;;553.83;382.92;;;;;;;;;;4929660;29;20024;-74
2021/08/03 02:01:28;;;;;;;554.67;382.25;;;;;;;;;;4946474;28;20368;-73
2021/08/03 02:03:55;;;;;;;553.15;380.40;;;;;;;;;;4946239;29;20031;-74
2021/08/03 02:06:24;;;;;;;559.38;385.30;;;;;;;;;;4944416;29;20173;-73
2021/08/03 02:08:50;;;;;;;555.13;375.45;;;;;;;;;;4946069;28;20019;-74
2021/08/03 02:11:16;;;;;;;549.13;373.70;;;;;;;;;;4946172;29;20016;-74
2021/08/03 02:13:44;;;;;;;551.25;376.17;;;;;;;;;;4927916;29;20393;-74
2021/08/03 02:16:10;;;;;;;551.78;377.05;;;;;;;;;;4929483;29;20027;-74
2021/08/03 02:18:36;;;;;;;561.47;383.45;;;;;;;;;;4945968;29;20046;-75
2021/08/03 02:21:03;;;;;;;549.72;377.52;;;;;;;;;;4946462;29;20105;-75
2021/08/03 02:23:30;;;;;;;561.60;388.52;;;;;;;;;;4945818;29;20065;-76
2021/08/03 02:25:57;;;;;;;557.42;379.33;;;;;;;;;;4945890;29;20075;-74
2021/08/03 02:28:23;;;;;;;568.22;393.15;;;;;;;;;;4946217;29;20031;-75
2021/08/03 02:30:52;;;;;;;566.67;390.38;;;;;;;;;;4944146;29;20077;-73
2021/08/03 02:33:23;;;;;;;752.37;548.07;;;;;;;;;;4936441;29;20024;-74
2021/08/03 02:35:49;;;;;;;;;;;;;;;;;;4945760;28;20092;-73
2021/08/03 02:38:18;;;;;;;533.60;354.55;;;;;;;;;;4946066;28;20005;-73
2021/08/03 02:40:44;;;;;;;530.17;362.60;;;;;;;;;;4949661;29;20023;-73
2021/08/03 02:43:12;;;;;;;530.45;366.13;;;;;;;;;;4944922;28;20477;-74
2021/08/03 02:45:40;;;;;;;528.92;366.60;;;;;;;;;;4946032;28;20625;-73
2021/08/03 02:48:14;;;;;;;530.35;366.27;;;;;;;;;;4947896;29;20045;-74
2021/08/03 02:50:42;;;;;;;525.38;358.05;;;;;;;;;;4950347;28;20113;-74
2021/08/03 02:53:14;;;;;;;527.63;363.35;;;;;;;;;;4948007;28;20053;-75
2021/08/03 02:55:42;;;;;;;532.88;370.50;;;;;;;;;;4947859;28;20019;-74
2021/08/03 02:58:10;;;;;;;531.10;368.05;;;;;;;;;;4948731;29;20035;-74
2021/08/03 03:00:38;;;;;;;529.85;363.15;;;;;;;;;;4949207;29;20032;-74
2021/08/03 03:03:06;;;;;;;538.80;382.40;;;;;;;;;;4947806;29;20016;-74
2021/08/03 03:05:35;;;;;;;529.00;358.52;;;;;;;;;;4948336;28;20065;-76
2021/08/03 03:08:12;;;;;;;535.47;365.70;;;;;;;;;;4946782;28;20445;-74
2021/08/03 03:10:44;;;;;;;539.00;377.40;;;;;;;;;;4947539;29;20053;-74
2021/08/03 03:13:30;;;;;;;541.47;375.95;;;;;;;;;;4947769;29;20040;-74
2021/08/03 03:15:57;;;;;;;549.30;388.52;;;;;;;;;;4921262;28;20054;-74
2021/08/03 03:18:23;;;;;;;564.65;396.08;;;;;;;;;;4947292;29;20038;-74
2021/08/03 03:20:50;;;;;;;564.15;394.15;;;;;;;;;;4948862;29;20030;-74
2021/08/03 03:23:17;;;;;;;569.28;395.23;;;;;;;;;;4948282;29;20256;-74
2021/08/03 03:25:43;;;;;;;610.83;433.00;;;;;;;;;;4947736;29;20478;-74
2021/08/03 03:28:09;;;;;;;545.92;378.15;;;;;;;;;;4948273;28;20133;-74
2021/08/03 03:30:37;;;;;;;661.72;473.23;;;;;;;;;;4948903;29;20111;-73
2021/08/03 03:33:05;;;;;;;537.28;366.15;;;;;;;;;;4947976;28;20026;-74
2021/08/03 03:35:32;;;;;;;547.75;376.40;;;;;;;;;;4947895;29;20020;-74
2021/08/03 03:37:58;;;;;;;551.17;376.95;;;;;;;;;;4931319;28;20103;-74
2021/08/03 03:40:25;;;;;;;558.92;387.73;;;;;;;;;;4928838;28;20024;-73
2021/08/03 03:42:52;;;;;;;566.40;395.05;;;;;;;;;;4945978;29;20095;-74
2021/08/03 03:45:18;;;;;;;566.70;384.95;;;;;;;;;;4948249;29;20368;-73
2021/08/03 03:47:52;;;;;;;590.58;404.73;;;;;;;;;;4948022;28;20011;-74
2021/08/03 03:50:20;;;;;;;579.95;397.20;;;;;;;;;;4946064;29;20026;-74
2021/08/03 03:52:53;;;;;;;590.85;395.23;;;;;;;;;;4940656;28;20033;-74
2021/08/03 03:55:20;;;;;;;674.50;477.35;;;;;;;;;;4947943;29;20027;-74
2021/08/03 03:57:46;;;;;;;543.78;364.63;;;;;;;;;;4947788;29;20035;-74
2021/08/03 04:00:14;;;;;;;545.83;366.23;;;;;;;;;;4948095;29;20037;-74
2021/08/03 04:02:41;;;;;;;546.55;364.20;;;;;;;;;;4947398;29;20555;-74
2021/08/03 04:05:09;;;;;;;538.28;354.55;;;;;;;;;;4929970;28;20043;-74
2021/08/03 04:07:35;;;;;;;555.28;377.85;;;;;;;;;;4929041;29;20453;-74
2021/08/03 04:10:03;;;;;;;557.55;378.30;;;;;;;;;;4947728;29;20046;-73
2021/08/03 04:12:29;;;;;;;557.40;373.63;;;;;;;;;;4948320;29;20450;-73
2021/08/03 04:14:55;;;;;;;568.55;383.27;;;;;;;;;;4930286;29;20031;-73
2021/08/03 04:17:21;;;;;;;571.10;389.92;;;;;;;;;;4929663;29;20035;-73
2021/08/03 04:19:48;;;;;;;556.00;376.42;;;;;;;;;;4946869;29;20051;-75
2021/08/03 04:22:14;;;;;;;565.00;386.55;;;;;;;;;;4948665;29;20402;-72
2021/08/03 04:24:40;;;;;;;554.53;371.90;;;;;;;;;;4947788;28;20476;-72
2021/08/03 04:27:06;;;;;;;558.13;375.15;;;;;;;;;;4947619;29;20027;-72
2021/08/03 04:29:32;;;;;;;564.20;384.27;;;;;;;;;;4947672;29;20518;-72
2021/08/03 04:31:58;;;;;;;562.85;385.75;;;;;;;;;;4947820;29;20334;-72
2021/08/03 04:34:24;;;;;;;573.65;384.08;;;;;;;;;;4946650;29;20038;-72
2021/08/03 04:36:50;;;;;;;575.88;391.98;;;;;;;;;;4947733;29;20380;-73
2021/08/03 04:39:16;;;;;;;592.80;408.98;;;;;;;;;;4946723;29;20035;-71
2021/08/03 04:41:42;;;;;;;662.92;453.00;;;;;;;;;;4930535;29;20066;-72
2021/08/03 04:44:08;;;;;;;553.72;374.65;;;;;;;;;;4947293;28;20027;-72
2021/08/03 04:46:34;;;;;;;548.53;372.45;;;;;;;;;;4948125;29;20054;-71
2021/08/03 04:49:00;;;;;;;543.90;369.20;;;;;;;;;;4937173;29;20015;-72
2021/08/03 04:51:26;;;;;;;546.45;368.98;;;;;;;;;;4944225;29;20089;-72
2021/08/03 04:53:52;;;;;;;571.15;391.75;;;;;;;;;;4944925;28;20066;-72
2021/08/03 04:56:18;;;;;;;562.58;384.80;;;;;;;;;;4947223;29;20039;-72
2021/08/03 04:58:44;;;;;;;553.10;377.27;;;;;;;;;;4946803;29;20031;-72
2021/08/03 05:01:10;;;;;;;572.40;398.13;;;;;;;;;;4947106;28;20098;-72
2021/08/03 05:03:35;;;;;;;630.28;445.90;;;;;;;;;;4947845;29;20023;-72
2021/08/03 05:06:01;;;;;;;545.95;368.05;;;;;;;;;;4944695;29;20066;-72
2021/08/03 05:08:27;;;;;;;554.78;379.63;;;;;;;;;;4945247;28;20023;-71
2021/08/03 05:10:54;;;;;;;572.38;392.55;;;;;;;;;;4928914;29;20047;-73
2021/08/03 05:13:19;;;;;;;586.65;404.88;;;;;;;;;;4947641;29;20019;-72
2021/08/03 05:15:45;;;;;;;568.50;394.80;;;;;;;;;;4946763;28;20019;-72
2021/08/03 05:18:11;;;;;;;569.05;396.45;;;;;;;;;;4947030;29;20027;-72
2021/08/03 05:20:37;;;;;;;562.92;382.60;;;;;;;;;;4947279;28;20012;-73
2021/08/03 05:23:03;;;;;;;563.60;391.83;;;;;;;;;;4946677;29;20049;-72
2021/08/03 05:25:29;;;;;;;567.13;390.00;;;;;;;;;;4930296;28;20130;-72
2021/08/03 05:27:55;;;;;;;576.78;396.25;;;;;;;;;;4946487;28;20031;-72
2021/08/03 05:30:21;;;;;;;572.20;401.25;;;;;;;;;;4944314;29;20077;-71
2021/08/03 05:32:47;;;;;;;562.97;398.67;;;;;;;;;;4945253;28;20475;-72
2021/08/03 05:35:13;;;;;;;569.88;400.40;;;;;;;;;;4944663;28;20461;-72
2021/08/03 05:37:39;;;;;;;579.20;403.15;;;;;;;;;;4944062;28;20023;-72
2021/08/03 05:40:08;;;;;;;663.05;476.30;;;;;;;;;;4946406;29;20031;-72
2021/08/03 05:42:35;;;;;;;690.97;495.47;;;;;;;;;;4943820;28;20104;-72
2021/08/03 05:45:01;;;;;;;536.22;373.35;;;;;;;;;;4944924;29;20572;-71
2021/08/03 05:47:27;;;;;;;539.63;378.73;;;;;;;;;;4931424;28;20081;-72
2021/08/03 05:49:53;;;;;;;536.67;372.88;;;;;;;;;;4943549;28;20103;-72
2021/08/03 05:52:18;;;;;;;540.10;384.63;;;;;;;;;;4925871;28;20138;-72
2021/08/03 05:54:44;;;;;;;544.55;391.95;;;;;;;;;;4925412;29;20024;-73
2021/08/03 05:57:10;;;;;;;554.70;394.63;;;;;;;;;;4944583;28;20566;-73
2021/08/03 05:59:36;;;;;;;548.97;389.08;;;;;;;;;;4945172;28;20696;-72
2021/08/03 06:02:02;;;;;;;546.70;385.90;;;;;;;;;;4944227;28;20050;-72
2021/08/03 06:04:28;;;;;;;556.83;401.20;;;;;;;;;;4944757;28;20037;-72
2021/08/03 06:06:55;;;;;;;550.80;399.25;;;;;;;;;;4943143;29;20015;-72
2021/08/03 06:09:23;;;;;;;555.92;402.88;;;;;;;;;;4943077;28;20019;-72
2021/08/03 06:11:50;;;;;;;552.67;408.20;;;;;;;;;;4943546;28;20055;-73
2021/08/03 06:14:40;;;;;;;551.72;399.42;;;;;;;;;;4932173;28;20023;-72
2021/08/03 06:17:07;;;;;;;548.65;404.80;;;;;;;;;;4941712;28;20134;-73
2021/08/03 06:19:43;;;;;;;553.42;402.48;;;;;;;;;;4948220;29;20027;-73
2021/08/03 06:22:10;;;;;;;556.75;415.55;;;;;;;;;;4947554;28;20361;-73
2021/08/03 06:24:36;;;;;;;556.00;410.65;;;;;;;;;;4948833;29;20029;-73
2021/08/03 06:27:02;;;;;;;564.95;417.77;;;;;;;;;;4947138;29;20026;-74
2021/08/03 06:29:28;;;;;;;554.78;409.60;;;;;;;;;;4948714;29;20536;-72
2021/08/03 06:31:55;;;;;;;565.10;420.08;;;;;;;;;;4949029;29;20039;-73
2021/08/03 06:34:21;;;;;;;574.38;434.50;;;;;;;;;;4967006;28;20034;-73
2021/08/03 06:36:47;;;;;;;569.33;429.20;;;;;;;;;;4949596;28;20027;-73
2021/08/03 06:39:13;;;;;;;580.95;443.92;;;;;;;;;;4949612;29;20093;-73
2021/08/03 06:41:40;;;;;;;584.28;438.95;;;;;;;;;;4947358;28;20110;-73
2021/08/03 06:44:14;;;;;;;582.30;431.75;;;;;;;;;;4944532;29;20027;-73
2021/08/03 06:46:44;;;;;;;602.42;451.80;;;;;;;;;;4941201;29;20097;-73
2021/08/03 06:49:11;;;;;;;685.35;521.08;;;;;;;;;;4945532;29;20019;-76
2021/08/03 06:51:38;;;;;;;541.67;411.52;;;;;;;;;;4944611;28;20426;-73
2021/08/03 06:54:05;;;;;;;546.63;416.13;;;;;;;;;;4946603;28;20505;-73
2021/08/03 06:56:32;;;;;;;554.42;426.42;;;;;;;;;;4943796;29;20028;-74
2021/08/03 06:59:05;;;;;;;619.83;492.45;;;;;;;;;;4947184;29;20023;-73
2021/08/03 07:01:48;;;;;;;584.65;452.88;;;;;;;;;;4949144;29;20081;-73
2021/08/03 07:04:20;;;;;;;570.45;438.70;;;;;;;;;;4959945;28;20034;-73
2021/08/03 07:06:56;;;;;;;558.08;431.85;;;;;;;;;;4946427;29;20035;-75
2021/08/03 07:09:23;;;;;;;568.60;444.08;;;;;;;;;;4948255;29;20029;-75
2021/08/03 07:11:51;;;;;;;561.08;441.02;;;;;;;;;;4947692;28;20028;-75
2021/08/03 07:14:22;;;;;;;561.85;435.65;;;;;;;;;;4945882;28;20019;-74
2021/08/03 07:16:48;;;;;;;560.17;434.60;;;;;;;;;;4943535;28;20027;-73
2021/08/03 07:19:17;;;;;;;572.50;452.17;;;;;;;;;;4930777;29;20027;-74
2021/08/03 07:21:43;;;;;;;563.90;446.60;;;;;;;;;;4946690;28;20388;-74
2021/08/03 07:24:12;;;;;;;574.15;451.95;;;;;;;;;;4947748;28;20430;-74
2021/08/03 07:26:37;;;;;;;569.20;446.02;;;;;;;;;;4948766;29;20031;-73
2021/08/03 07:29:03;;;;;;;576.28;453.52;;;;;;;;;;4948086;29;20035;-73
2021/08/03 07:31:31;;;;;;;572.55;453.23;;;;;;;;;;4947674;28;20050;-76
2021/08/03 07:33:57;;;;;;;576.58;459.75;;;;;;;;;;4948573;28;20104;-74
2021/08/03 07:36:23;;;;;;;575.70;457.67;;;;;;;;;;4945221;28;20094;-74
2021/08/03 07:38:54;;;;;;;579.08;466.05;;;;;;;;;;4948229;29;20100;-74
2021/08/03 07:41:20;;;;;;;608.97;495.27;;;;;;;;;;4934776;29;20439;-74
2021/08/03 07:43:46;;;;;;;685.88;571.85;;;;;;;;;;4944901;28;20108;-74
2021/08/03 07:46:12;;;;;;;556.97;450.88;;;;;;;;;;4945847;29;20045;-74
2021/08/03 07:48:38;;;;;;;573.15;463.60;;;;;;;;;;4929957;28;20046;-73
2021/08/03 07:51:06;;;;;;;566.65;459.38;;;;;;;;;;4946939;29;21591;-74
2021/08/03 07:53:31;;;;;;;571.03;471.08;;;;;;;;;;4948264;28;20035;-75
2021/08/03 07:55:58;;;;;;;609.05;507.02;;;;;;;;;;4944624;28;20023;-74
2021/08/03 07:58:24;;;;;;;613.28;505.98;;;;;;;;;;4958812;28;20024;-74
2021/08/03 08:00:49;;;;;;;688.28;586.38;;;;;;;;;;4942304;28;20617;-73
2021/08/03 08:03:15;;;;;;;547.90;454.00;;;;;;;;;;4950698;28;20024;-73
2021/08/03 08:05:41;;;;;;;553.33;459.23;;;;;;;;;;4950288;28;20035;-73
2021/08/03 08:08:07;;;;;;;557.15;462.25;;;;;;;;;;4928719;29;20039;-74
2021/08/03 08:10:34;;;;;;;558.60;466.15;;;;;;;;;;4947901;29;20036;-73
2021/08/03 08:12:59;;;;;;;552.95;458.98;;;;;;;;;;4947856;29;20477;-73
2021/08/03 08:15:25;;;;;;;569.90;475.00;;;;;;;;;;4945378;29;20030;-74
2021/08/03 08:17:51;;;;;;;553.63;459.27;;;;;;;;;;4945225;29;20085;-73
2021/08/03 08:20:17;;;;;;;556.95;461.02;;;;;;;;;;4947894;28;20026;-73
2021/08/03 08:22:44;;;;;;;567.60;467.27;;;;;;;;;;4944806;28;20019;-72
2021/08/03 08:25:10;;;;;;;561.17;462.35;;;;;;;;;;4954202;28;20046;-73
2021/08/03 08:27:40;;;;;;;571.15;474.88;;;;;;;;;;4961561;28;20517;-73
2021/08/03 08:30:07;;;;;;;631.30;531.42;;;;;;;;;;4968637;28;20028;-73
2021/08/03 08:32:33;;;;;;;559.92;466.70;;;;;;;;;;4958281;28;20061;-72
2021/08/03 08:34:59;;;;;;;614.90;516.90;;;;;;;;;;4965283;28;20027;-73
2021/08/03 08:37:25;;;;;;;554.10;469.55;;;;;;;;;;4956365;28;20080;-73
2021/08/03 08:39:50;;;;;;;556.65;474.98;;;;;;;;;;4961333;28;20021;-76
2021/08/03 08:42:17;;;;;;;553.78;473.65;;;;;;;;;;4949897;28;20043;-75
2021/08/03 08:44:48;;;;;;;556.60;476.55;;;;;;;;;;4955314;28;20069;-75
2021/08/03 08:47:14;;;;;;;558.70;483.02;;;;;;;;;;4948345;28;20260;-74
2021/08/03 08:49:40;;;;;;;558.72;486.05;;;;;;;;;;4973731;28;20027;-73
2021/08/03 08:52:07;;;;;;;558.67;480.13;;;;;;;;;;4960909;28;20106;-73
2021/08/03 08:54:32;;;;;;;564.78;485.13;;;;;;;;;;4952597;28;20034;-73
2021/08/03 08:57:00;;;;;;;564.45;490.00;;;;;;;;;;4945611;28;20110;-74
2021/08/03 08:59:26;;;;;;;566.30;490.00;;;;;;;;;;4947700;28;20049;-76
2021/08/03 09:01:52;;;;;;;568.90;501.25;;;;;;;;;;4945600;28;20354;-76
2021/08/03 09:04:18;;;;;;;563.42;495.25;;;;;;;;;;4931292;28;20035;-76
2021/08/03 09:07:00;;;;;;;576.65;502.95;;;;;;;;;;4942343;28;20074;-75
2021/08/03 09:09:25;;;;;;;561.78;492.70;;;;;;;;;;4949384;28;20127;-80
2021/08/03 09:11:51;;;;;;;565.45;496.45;;;;;;;;;;4947370;28;20110;-76
2021/08/03 09:14:32;;;;;;;563.67;494.33;;;;;;;;;;4950203;28;20067;-77
2021/08/03 09:16:59;;;;;;;;;;;;;;;;;;4938444;28;20034;-76
2021/08/03 09:19:43;;;;;;;569.88;494.98;;;;;;;;;;4944060;29;19914;-76
2021/08/03 09:22:12;;;;;;;587.15;522.83;;;;;;;;;;4942669;29;20134;-78
2021/08/03 09:24:38;;;;;;;589.30;525.58;;;;;;;;;;4926486;29;20102;-74
2021/08/03 09:27:04;;;;;;;589.72;526.67;;;;;;;;;;4943285;29;20012;-74
2021/08/03 09:29:43;;;;;;;602.78;538.72;;;;;;;;;;4940549;29;20046;-75
2021/08/03 09:32:09;;;;;;;585.15;522.55;;;;;;;;;;4937934;28;20141;-74
2021/08/03 09:34:35;;;;;;;587.45;524.60;;;;;;;;;;4957968;28;20545;-75
2021/08/03 09:37:01;;;;;;;580.83;518.08;;;;;;;;;;4955329;28;20031;-74
2021/08/03 09:39:43;;;;;;;578.40;515.45;;;;;;;;;;4957284;28;20043;-74
2021/08/03 09:42:12;;;;;;;570.63;507.88;;;;;;;;;;4955842;28;20063;-75
2021/08/03 09:44:45;;;;;;;568.92;505.75;;;;;;;;;;4940687;28;20077;-75
2021/08/03 09:47:11;;;;;;;572.45;508.92;;;;;;;;;;4940900;28;20023;-74
2021/08/03 09:49:57;;;;;;;579.15;512.70;;;;;;;;;;4937740;28;20118;-74
2021/08/03 09:52:24;;;;;;;576.63;507.25;;;;;;;;;;4927100;28;20039;-74
2021/08/03 09:55:06;;;;;;;573.88;502.75;;;;;;;;;;4938356;28;20062;-74
2021/08/03 09:57:32;;;;;;;574.97;495.67;;;;;;;;;;4950870;28;20044;-75
2021/08/03 09:59:59;;;;;;;579.17;503.50;;;;;;;;;;4955797;28;20438;-73
2021/08/03 10:02:25;;;;;;;574.72;501.52;;;;;;;;;;4962501;28;20034;-74
2021/08/03 10:04:52;;;;;;;575.45;502.23;;;;;;;;;;4967133;28;20721;-74
2021/08/03 10:07:18;;;;;;;577.08;502.42;;;;;;;;;;4955036;28;20030;-74
2021/08/03 10:09:45;;;;;;;579.33;505.23;;;;;;;;;;4964188;28;20682;-74
2021/08/03 10:12:12;;;;;;;573.60;494.20;;;;;;;;;;4939688;29;20038;-74
2021/08/03 10:14:38;;;;;;;575.70;492.60;;;;;;;;;;4934593;28;20023;-75
2021/08/03 10:17:04;;;;;;;577.35;501.05;;;;;;;;;;4946742;29;20024;-74
2021/08/03 10:19:33;;;;;;;584.42;508.20;;;;;;;;;;4926207;28;20082;-77
2021/08/03 10:22:00;;;;;;;582.40;509.25;;;;;;;;;;4947329;28;20073;-74
2021/08/03 10:24:29;;;;;;;582.33;506.35;;;;;;;;;;4939614;28;20015;-75
2021/08/03 10:27:05;;;;;;;584.33;509.85;;;;;;;;;;4944937;29;20116;-74
2021/08/03 10:29:32;;;;;;;583.05;506.42;;;;;;;;;;4944230;28;20328;-74
2021/08/03 10:31:58;;;;;;;587.38;514.60;;;;;;;;;;4946293;28;20097;-74
2021/08/03 10:34:46;;;;;;;587.25;508.08;;;;;;;;;;4944988;28;20099;-75
2021/08/03 10:37:31;;;;;;;579.92;498.33;;;;;;;;;;4946716;29;20465;-85
2021/08/03 10:40:42;;;;;;;;;;;;;;;;;;;;;
2021/08/03 10:43:18;;;;;;;583.58;499.13;;;;;;;;;;4938865;28;20453;-82
2021/08/03 10:45:45;;;;;;;588.50;512.40;;;;;;;;;;4923788;28;20027;-83
2021/08/03 10:48:11;;;;;;;588.30;514.75;;;;;;;;;;4940159;28;20019;-81
2021/08/03 10:50:38;;;;;;;585.30;508.30;;;;;;;;;;4939107;28;20035;-83
2021/08/03 10:53:04;;;;;;;588.58;513.67;;;;;;;;;;4927125;28;20050;-81
2021/08/03 10:55:39;;;;;;;590.72;512.50;;;;;;;;;;4936807;28;20019;-79
2021/08/03 10:58:16;;;;;;;577.90;488.63;;;;;;;;;;4926964;28;20118;-77
2021/08/03 11:01:02;;;;;;;580.47;498.90;;;;;;;;;;4946797;28;20023;-79
2021/08/03 11:03:31;;;;;;;579.10;493.63;;;;;;;;;;4939280;28;20888;-74
2021/08/03 11:05:57;;;;;;;576.35;493.98;;;;;;;;;;4947464;28;20396;-77
2021/08/03 11:08:43;;;;;;;581.88;501.10;;;;;;;;;;4938054;29;20132;-77
2021/08/03 11:11:22;;;;;;;579.80;496.63;;;;;;;;;;4949814;29;20058;-76
2021/08/03 11:13:49;;;;;;;579.78;494.55;;;;;;;;;;4944467;28;20090;-77
2021/08/03 11:16:22;;;;;;;585.58;499.23;;;;;;;;;;4945872;29;20077;-77
2021/08/03 11:18:52;;;;;;;581.72;498.90;;;;;;;;;;4932926;28;20034;-76
2021/08/03 11:21:19;;;;;;;573.78;486.17;;;;;;;;;;4947926;28;20023;-75
2021/08/03 11:24:04;;;;;;;595.28;496.70;;;;;;;;;;4948705;28;20054;-75
2021/08/03 11:26:31;;;;;;;581.83;502.50;;;;;;;;;;4944797;29;20106;-76
2021/08/03 11:29:15;;;;;;;579.80;500.58;;;;;;;;;;4939369;28;20028;-75
2021/08/03 11:31:49;;;;;;;583.45;503.88;;;;;;;;;;4945144;28;20042;-74
2021/08/03 11:34:17;;;;;;;579.15;495.73;;;;;;;;;;4952849;28;20524;-76
2021/08/03 11:37:12;;;;;;;576.53;492.00;;;;;;;;;;4948380;28;20027;-75
2021/08/03 11:39:43;;;;;;;580.08;497.00;;;;;;;;;;4933591;28;20031;-75
2021/08/03 11:42:10;;;;;;;586.95;509.02;;;;;;;;;;4952057;28;20134;-75
2021/08/03 11:44:36;;;;;;;580.95;503.48;;;;;;;;;;4956512;28;20034;-75
2021/08/03 11:47:07;;;;;;;575.03;490.42;;;;;;;;;;4950206;28;20114;-75
2021/08/03 11:49:35;;;;;;;582.13;498.40;;;;;;;;;;4970870;28;20031;-75
2021/08/03 11:52:20;;;;;;;575.83;497.75;;;;;;;;;;4936861;28;20058;-75
2021/08/03 11:54:47;;;;;;;578.60;502.30;;;;;;;;;;4944915;29;20487;-75
2021/08/03 11:57:32;;;;;;;583.80;499.50;;;;;;;;;;4948710;29;20102;-76
2021/08/03 12:00:03;;;;;;;585.38;509.45;;;;;;;;;;4945864;28;20023;-75
2021/08/03 12:02:29;;;;;;;577.28;500.05;;;;;;;;;;4931514;29;20130;-75
2021/08/03 12:05:12;;;;;;;576.17;499.70;;;;;;;;;;4954540;28;20319;-75
2021/08/03 12:07:40;;;;;;;576.25;498.33;;;;;;;;;;4948330;28;20040;-75
2021/08/03 12:10:07;;;;;;;574.47;501.42;;;;;;;;;;4930220;29;20061;-75
2021/08/03 12:12:34;;;;;;;577.40;504.67;;;;;;;;;;4948443;28;20037;-75
2021/08/03 12:15:04;;;;;;;580.65;503.92;;;;;;;;;;4940489;28;20126;-75
2021/08/03 12:17:30;;;;;;;;;;;;;;;;;;4946125;29;20082;-75
2021/08/03 12:20:03;;;;;;;571.88;484.23;;;;;;;;;;4945394;29;19907;-75
2021/08/03 12:22:30;;;;;;;576.80;496.90;;;;;;;;;;4950679;28;20024;-75
2021/08/03 12:25:00;;;;;;;580.40;507.25;;;;;;;;;;4948416;29;20023;-75
2021/08/03 12:27:26;;;;;;;578.72;504.15;;;;;;;;;;4949753;28;20089;-75
2021/08/03 12:29:52;;;;;;;579.15;511.73;;;;;;;;;;4947704;28;20019;-74
2021/08/03 12:32:38;;;;;;;580.97;516.25;;;;;;;;;;4950332;28;20015;-75
2021/08/03 12:35:13;;;;;;;580.00;513.88;;;;;;;;;;4946802;29;20247;-74
2021/08/03 12:37:41;;;;;;;584.13;515.05;;;;;;;;;;4948966;29;20032;-75
2021/08/03 12:40:25;;;;;;;583.00;514.83;;;;;;;;;;4950632;28;20110;-75
2021/08/03 12:42:53;;;;;;;580.80;507.50;;;;;;;;;;4944283;28;20044;-76
2021/08/03 12:45:20;;;;;;;576.50;506.45;;;;;;;;;;4945774;28;20035;-74
2021/08/03 12:48:01;;;;;;;587.05;522.28;;;;;;;;;;4935665;28;20927;-74
2021/08/03 12:50:29;;;;;;;577.35;512.92;;;;;;;;;;4947569;28;20023;-74
2021/08/03 12:53:01;;;;;;;581.53;517.53;;;;;;;;;;4948036;28;20027;-75
2021/08/03 12:55:42;;;;;;;592.72;528.00;;;;;;;;;;4941531;29;20034;-75
2021/08/03 12:58:09;;;;;;;593.85;528.80;;;;;;;;;;4931814;29;20057;-76
2021/08/03 13:00:37;;;;;;;587.80;523.35;;;;;;;;;;4932193;29;20138;-76
2021/08/03 13:03:04;;;;;;;597.60;532.30;;;;;;;;;;4936395;29;20524;-75
2021/08/03 13:05:30;;;;;;;589.30;525.00;;;;;;;;;;4918868;28;20598;-76
2021/08/03 13:07:56;;;;;;;595.10;530.45;;;;;;;;;;4933871;28;20023;-76
2021/08/03 13:10:23;;;;;;;596.67;532.30;;;;;;;;;;4949455;28;20051;-76
2021/08/03 13:12:49;;;;;;;601.47;536.63;;;;;;;;;;4930932;28;20118;-76
2021/08/03 13:15:15;;;;;;;607.30;543.22;;;;;;;;;;4920838;28;20046;-76
2021/08/03 13:17:41;;;;;;;624.75;560.00;;;;;;;;;;4933879;28;20027;-76
2021/08/03 13:20:08;;;;;;;633.85;569.08;;;;;;;;;;4915624;28;20420;-76
2021/08/03 13:22:35;;;;;;;634.83;570.15;;;;;;;;;;4915944;28;20365;-75
2021/08/03 13:25:01;;;;;;;634.67;569.97;;;;;;;;;;4935744;28;20035;-76
2021/08/03 13:27:27;;;;;;;625.85;561.15;;;;;;;;;;4928546;28;20034;-76
2021/08/03 13:29:53;;;;;;;619.30;555.10;;;;;;;;;;4942769;29;20034;-76
2021/08/03 13:32:19;;;;;;;612.88;548.70;;;;;;;;;;4929698;28;20035;-76
2021/08/03 13:34:45;;;;;;;604.55;540.78;;;;;;;;;;4945008;28;20515;-76
2021/08/03 13:37:11;;;;;;;601.33;537.50;;;;;;;;;;4945688;29;20095;-77
2021/08/03 13:39:37;;;;;;;598.25;534.67;;;;;;;;;;4926422;29;20571;-76
2021/08/03 13:42:03;;;;;;;599.35;535.30;;;;;;;;;;4928475;29;20047;-76
2021/08/03 13:44:29;;;;;;;596.55;532.80;;;;;;;;;;4947108;28;20035;-76
2021/08/03 13:46:55;;;;;;;594.15;530.45;;;;;;;;;;4926608;29;20126;-76
2021/08/03 13:49:22;;;;;;;593.65;529.80;;;;;;;;;;4946220;28;20524;-76
2021/08/03 13:51:48;;;;;;;589.53;526.08;;;;;;;;;;4936605;28;20061;-76
2021/08/03 13:54:14;;;;;;;604.22;540.08;;;;;;;;;;4934731;28;20027;-77
2021/08/03 13:56:40;;;;;;;596.17;532.55;;;;;;;;;;4938443;28;20023;-77
2021/08/03 13:59:06;;;;;;;588.33;525.13;;;;;;;;;;4928763;29;20428;-75
2021/08/03 14:01:32;;;;;;;604.17;540.17;;;;;;;;;;4944037;29;20319;-77
2021/08/03 14:03:57;;;;;;;606.85;543.03;;;;;;;;;;4928283;28;20027;-77